sensor_id;sensor_type;location;lat;lon;timestamp;P1;durP1;ratioP1;P2;durP2;ratioP2
8584;SDS011;7180;52.742;11.420;2023-04-24T00:02:06;11.13;;;10.43;;
8584;SDS011;7180;52.742;11.420;2023-04-24T00:04:34;10.80;;;10.00;;
8584;SDS011;7180;52.742;11.420;2023-04-24T00:06:59;10.00;;;9.40;;
8584;SDS011;7180;52.742;11.420;2023-04-24T00:09:25;10.47;;;9.77;;
8584;SDS011;7180;52.742;11.420;2023-04-24T00:11:51;10.17;;;9.57;;
8584;SDS011;7180;52.742;11.420;2023-04-24T00:14:17;10.20;;;9.60;;
8584;SDS011;7180;52.742;11.420;2023-04-24T00:16:42;9.93;;;9.33;;
8584;SDS011;7180;52.742;11.420;2023-04-24T00:19:07;10.87;;;10.27;;
8584;SDS011;7180;52.742;11.420;2023-04-24T00:21:32;10.40;;;9.80;;
8584;SDS011;7180;52.742;11.420;2023-04-24T00:23:58;10.13;;;9.53;;
8584;SDS011;7180;52.742;11.420;2023-04-24T00:26:23;10.10;;;9.50;;
8584;SDS011;7180;52.742;11.420;2023-04-24T00:28:49;10.30;;;9.70;;
8584;SDS011;7180;52.742;11.420;2023-04-24T00:31:14;10.50;;;9.90;;
8584;SDS011;7180;52.742;11.420;2023-04-24T00:33:39;9.97;;;9.37;;
8584;SDS011;7180;52.742;11.420;2023-04-24T00:36:05;10.17;;;9.47;;
8584;SDS011;7180;52.742;11.420;2023-04-24T00:38:30;9.97;;;9.37;;
8584;SDS011;7180;52.742;11.420;2023-04-24T00:40:56;10.20;;;9.60;;
8584;SDS011;7180;52.742;11.420;2023-04-24T00:43:21;9.90;;;9.30;;
8584;SDS011;7180;52.742;11.420;2023-04-24T00:45:46;9.93;;;9.43;;
8584;SDS011;7180;52.742;11.420;2023-04-24T00:48:12;10.33;;;9.73;;
8584;SDS011;7180;52.742;11.420;2023-04-24T00:50:37;10.17;;;9.57;;
8584;SDS011;7180;52.742;11.420;2023-04-24T00:53:03;10.53;;;9.93;;
8584;SDS011;7180;52.742;11.420;2023-04-24T00:55:28;10.70;;;10.10;;
8584;SDS011;7180;52.742;11.420;2023-04-24T00:57:54;10.17;;;9.60;;
8584;SDS011;7180;52.742;11.420;2023-04-24T01:00:19;10.20;;;9.70;;
8584;SDS011;7180;52.742;11.420;2023-04-24T01:02:45;10.87;;;10.17;;
8584;SDS011;7180;52.742;11.420;2023-04-24T01:05:14;10.40;;;9.80;;
8584;SDS011;7180;52.742;11.420;2023-04-24T01:07:40;9.90;;;9.40;;
8584;SDS011;7180;52.742;11.420;2023-04-24T01:10:09;10.30;;;9.70;;
8584;SDS011;7180;52.742;11.420;2023-04-24T01:12:34;10.70;;;10.10;;
8584;SDS011;7180;52.742;11.420;2023-04-24T01:15:00;11.10;;;10.50;;
8584;SDS011;7180;52.742;11.420;2023-04-24T01:17:25;10.93;;;10.23;;
8584;SDS011;7180;52.742;11.420;2023-04-24T01:19:51;11.13;;;10.43;;
8584;SDS011;7180;52.742;11.420;2023-04-24T01:22:21;11.10;;;10.50;;
8584;SDS011;7180;52.742;11.420;2023-04-24T01:24:46;11.23;;;10.53;;
8584;SDS011;7180;52.742;11.420;2023-04-24T01:27:12;11.40;;;10.57;;
8584;SDS011;7180;52.742;11.420;2023-04-24T01:29:38;11.03;;;10.43;;
8584;SDS011;7180;52.742;11.420;2023-04-24T01:32:04;10.90;;;10.30;;
8584;SDS011;7180;52.742;11.420;2023-04-24T01:34:30;10.67;;;10.07;;
8584;SDS011;7180;52.742;11.420;2023-04-24T01:36:56;10.97;;;10.37;;
8584;SDS011;7180;52.742;11.420;2023-04-24T01:39:21;11.00;;;10.30;;
8584;SDS011;7180;52.742;11.420;2023-04-24T01:41:48;10.83;;;10.23;;
8584;SDS011;7180;52.742;11.420;2023-04-24T01:44:14;11.40;;;10.70;;
8584;SDS011;7180;52.742;11.420;2023-04-24T01:46:40;11.07;;;10.37;;
8584;SDS011;7180;52.742;11.420;2023-04-24T01:49:06;10.70;;;10.00;;
8584;SDS011;7180;52.742;11.420;2023-04-24T01:51:31;11.07;;;10.37;;
8584;SDS011;7180;52.742;11.420;2023-04-24T01:53:56;10.93;;;10.33;;
8584;SDS011;7180;52.742;11.420;2023-04-24T01:56:22;11.50;;;10.80;;
8584;SDS011;7180;52.742;11.420;2023-04-24T01:58:48;11.03;;;10.33;;
8584;SDS011;7180;52.742;11.420;2023-04-24T02:01:17;10.87;;;10.17;;
8584;SDS011;7180;52.742;11.420;2023-04-24T02:03:43;11.40;;;10.63;;
8584;SDS011;7180;52.742;11.420;2023-04-24T02:06:09;10.77;;;10.17;;
8584;SDS011;7180;52.742;11.420;2023-04-24T02:08:34;10.97;;;10.33;;
8584;SDS011;7180;52.742;11.420;2023-04-24T02:11:00;11.60;;;10.90;;
8584;SDS011;7180;52.742;11.420;2023-04-24T02:13:26;11.50;;;10.80;;
8584;SDS011;7180;52.742;11.420;2023-04-24T02:15:52;11.17;;;10.50;;
8584;SDS011;7180;52.742;11.420;2023-04-24T02:18:17;11.00;;;10.17;;
8584;SDS011;7180;52.742;11.420;2023-04-24T02:20:42;10.20;;;9.60;;
8584;SDS011;7180;52.742;11.420;2023-04-24T02:23:07;10.10;;;9.50;;
8584;SDS011;7180;52.742;11.420;2023-04-24T02:25:33;10.30;;;9.60;;
8584;SDS011;7180;52.742;11.420;2023-04-24T02:27:58;9.83;;;9.33;;
8584;SDS011;7180;52.742;11.420;2023-04-24T02:30:23;9.90;;;9.30;;
8584;SDS011;7180;52.742;11.420;2023-04-24T02:32:49;10.10;;;9.50;;
8584;SDS011;7180;52.742;11.420;2023-04-24T02:35:14;9.50;;;9.00;;
8584;SDS011;7180;52.742;11.420;2023-04-24T02:37:39;10.50;;;9.90;;
8584;SDS011;7180;52.742;11.420;2023-04-24T02:40:05;10.37;;;9.87;;
8584;SDS011;7180;52.742;11.420;2023-04-24T02:42:30;10.57;;;9.97;;
8584;SDS011;7180;52.742;11.420;2023-04-24T02:44:56;10.17;;;9.53;;
8584;SDS011;7180;52.742;11.420;2023-04-24T02:47:21;9.60;;;9.10;;
8584;SDS011;7180;52.742;11.420;2023-04-24T02:49:46;10.00;;;9.50;;
8584;SDS011;7180;52.742;11.420;2023-04-24T02:52:12;10.23;;;9.63;;
8584;SDS011;7180;52.742;11.420;2023-04-24T02:54:38;9.80;;;9.30;;
8584;SDS011;7180;52.742;11.420;2023-04-24T02:57:03;10.00;;;9.40;;
8584;SDS011;7180;52.742;11.420;2023-04-24T02:59:28;9.83;;;9.33;;
8584;SDS011;7180;52.742;11.420;2023-04-24T03:01:54;9.73;;;9.03;;
8584;SDS011;7180;52.742;11.420;2023-04-24T03:04:19;10.20;;;9.70;;
8584;SDS011;7180;52.742;11.420;2023-04-24T03:06:45;10.20;;;9.53;;
8584;SDS011;7180;52.742;11.420;2023-04-24T03:09:10;9.70;;;9.20;;
8584;SDS011;7180;52.742;11.420;2023-04-24T03:11:36;10.00;;;9.50;;
8584;SDS011;7180;52.742;11.420;2023-04-24T03:14:01;9.50;;;9.00;;
8584;SDS011;7180;52.742;11.420;2023-04-24T03:16:27;9.90;;;9.30;;
8584;SDS011;7180;52.742;11.420;2023-04-24T03:18:52;9.27;;;8.87;;
8584;SDS011;7180;52.742;11.420;2023-04-24T03:21:17;9.67;;;9.17;;
8584;SDS011;7180;52.742;11.420;2023-04-24T03:23:43;9.87;;;9.27;;
8584;SDS011;7180;52.742;11.420;2023-04-24T03:26:08;9.43;;;9.03;;
8584;SDS011;7180;52.742;11.420;2023-04-24T03:28:33;9.40;;;8.90;;
8584;SDS011;7180;52.742;11.420;2023-04-24T03:30:58;10.30;;;9.80;;
8584;SDS011;7180;52.742;11.420;2023-04-24T03:33:24;9.47;;;9.00;;
8584;SDS011;7180;52.742;11.420;2023-04-24T03:35:50;10.03;;;9.53;;
8584;SDS011;7180;52.742;11.420;2023-04-24T03:38:15;10.10;;;9.50;;
8584;SDS011;7180;52.742;11.420;2023-04-24T03:40:40;9.63;;;9.13;;
8584;SDS011;7180;52.742;11.420;2023-04-24T03:43:05;10.07;;;9.57;;
8584;SDS011;7180;52.742;11.420;2023-04-24T03:45:31;10.10;;;9.60;;
8584;SDS011;7180;52.742;11.420;2023-04-24T03:47:56;9.67;;;9.17;;
8584;SDS011;7180;52.742;11.420;2023-04-24T03:50:21;9.50;;;8.90;;
8584;SDS011;7180;52.742;11.420;2023-04-24T03:52:47;9.30;;;8.80;;
8584;SDS011;7180;52.742;11.420;2023-04-24T03:55:12;9.57;;;9.07;;
8584;SDS011;7180;52.742;11.420;2023-04-24T03:57:39;10.10;;;9.50;;
8584;SDS011;7180;52.742;11.420;2023-04-24T04:00:05;10.23;;;9.63;;
8584;SDS011;7180;52.742;11.420;2023-04-24T04:02:31;9.37;;;8.97;;
8584;SDS011;7180;52.742;11.420;2023-04-24T04:04:56;9.30;;;8.80;;
8584;SDS011;7180;52.742;11.420;2023-04-24T04:07:21;9.73;;;9.23;;
8584;SDS011;7180;52.742;11.420;2023-04-24T04:09:47;10.10;;;9.60;;
8584;SDS011;7180;52.742;11.420;2023-04-24T04:12:12;9.73;;;9.23;;
8584;SDS011;7180;52.742;11.420;2023-04-24T04:14:37;9.23;;;8.73;;
8584;SDS011;7180;52.742;11.420;2023-04-24T04:17:03;10.10;;;9.60;;
8584;SDS011;7180;52.742;11.420;2023-04-24T04:19:28;9.80;;;9.30;;
8584;SDS011;7180;52.742;11.420;2023-04-24T04:21:53;9.57;;;9.10;;
8584;SDS011;7180;52.742;11.420;2023-04-24T04:24:21;9.70;;;9.20;;
8584;SDS011;7180;52.742;11.420;2023-04-24T04:26:47;9.20;;;8.80;;
8584;SDS011;7180;52.742;11.420;2023-04-24T04:29:15;10.57;;;9.90;;
8584;SDS011;7180;52.742;11.420;2023-04-24T04:31:41;9.93;;;9.33;;
8584;SDS011;7180;52.742;11.420;2023-04-24T04:34:06;9.50;;;9.10;;
8584;SDS011;7180;52.742;11.420;2023-04-24T04:36:32;9.73;;;9.23;;
8584;SDS011;7180;52.742;11.420;2023-04-24T04:39:01;9.70;;;9.20;;
8584;SDS011;7180;52.742;11.420;2023-04-24T04:41:28;9.60;;;9.10;;
8584;SDS011;7180;52.742;11.420;2023-04-24T04:43:55;9.40;;;9.00;;
8584;SDS011;7180;52.742;11.420;2023-04-24T04:46:23;9.10;;;8.70;;
8584;SDS011;7180;52.742;11.420;2023-04-24T04:48:51;9.53;;;9.03;;
8584;SDS011;7180;52.742;11.420;2023-04-24T04:51:16;9.30;;;8.80;;
8584;SDS011;7180;52.742;11.420;2023-04-24T04:53:42;9.33;;;8.83;;
8584;SDS011;7180;52.742;11.420;2023-04-24T04:56:07;9.97;;;9.47;;
8584;SDS011;7180;52.742;11.420;2023-04-24T04:58:32;9.80;;;9.30;;
8584;SDS011;7180;52.742;11.420;2023-04-24T05:00:58;9.13;;;8.73;;
8584;SDS011;7180;52.742;11.420;2023-04-24T05:03:24;9.40;;;8.80;;
8584;SDS011;7180;52.742;11.420;2023-04-24T05:05:49;9.27;;;8.87;;
8584;SDS011;7180;52.742;11.420;2023-04-24T05:08:14;9.77;;;9.27;;
8584;SDS011;7180;52.742;11.420;2023-04-24T05:10:39;9.80;;;9.20;;
8584;SDS011;7180;52.742;11.420;2023-04-24T05:13:05;8.80;;;8.40;;
8584;SDS011;7180;52.742;11.420;2023-04-24T05:15:30;9.70;;;9.13;;
8584;SDS011;7180;52.742;11.420;2023-04-24T05:17:55;9.00;;;8.60;;
8584;SDS011;7180;52.742;11.420;2023-04-24T05:20:21;8.60;;;8.20;;
8584;SDS011;7180;52.742;11.420;2023-04-24T05:22:46;9.00;;;8.50;;
8584;SDS011;7180;52.742;11.420;2023-04-24T05:25:11;9.30;;;8.70;;
8584;SDS011;7180;52.742;11.420;2023-04-24T05:27:37;8.93;;;8.53;;
8584;SDS011;7180;52.742;11.420;2023-04-24T05:30:03;8.97;;;8.57;;
8584;SDS011;7180;52.742;11.420;2023-04-24T05:32:29;8.80;;;8.40;;
8584;SDS011;7180;52.742;11.420;2023-04-24T05:34:54;9.00;;;8.50;;
8584;SDS011;7180;52.742;11.420;2023-04-24T05:37:20;8.93;;;8.33;;
8584;SDS011;7180;52.742;11.420;2023-04-24T05:39:45;8.37;;;7.97;;
8584;SDS011;7180;52.742;11.420;2023-04-24T05:42:11;8.60;;;8.20;;
8584;SDS011;7180;52.742;11.420;2023-04-24T05:44:36;8.23;;;7.77;;
8584;SDS011;7180;52.742;11.420;2023-04-24T05:47:01;7.77;;;7.47;;
8584;SDS011;7180;52.742;11.420;2023-04-24T05:49:27;7.83;;;7.53;;
8584;SDS011;7180;52.742;11.420;2023-04-24T05:51:52;7.97;;;7.60;;
8584;SDS011;7180;52.742;11.420;2023-04-24T05:54:17;8.20;;;7.80;;
8584;SDS011;7180;52.742;11.420;2023-04-24T05:56:42;8.77;;;8.33;;
8584;SDS011;7180;52.742;11.420;2023-04-24T05:59:08;8.40;;;8.00;;
8584;SDS011;7180;52.742;11.420;2023-04-24T06:01:33;8.87;;;8.47;;
8584;SDS011;7180;52.742;11.420;2023-04-24T06:03:58;9.07;;;8.50;;
8584;SDS011;7180;52.742;11.420;2023-04-24T06:06:24;9.23;;;8.73;;
8584;SDS011;7180;52.742;11.420;2023-04-24T06:08:49;8.80;;;8.40;;
8584;SDS011;7180;52.742;11.420;2023-04-24T06:11:14;8.80;;;8.40;;
8584;SDS011;7180;52.742;11.420;2023-04-24T06:13:40;7.23;;;6.90;;
8584;SDS011;7180;52.742;11.420;2023-04-24T06:16:05;8.40;;;8.00;;
8584;SDS011;7180;52.742;11.420;2023-04-24T06:18:30;8.67;;;8.17;;
8584;SDS011;7180;52.742;11.420;2023-04-24T06:20:55;8.67;;;8.17;;
8584;SDS011;7180;52.742;11.420;2023-04-24T06:23:21;8.50;;;8.10;;
8584;SDS011;7180;52.742;11.420;2023-04-24T06:25:46;8.63;;;8.13;;
8584;SDS011;7180;52.742;11.420;2023-04-24T06:28:11;8.77;;;8.37;;
8584;SDS011;7180;52.742;11.420;2023-04-24T06:30:37;8.33;;;7.93;;
8584;SDS011;7180;52.742;11.420;2023-04-24T06:33:02;8.60;;;8.10;;
8584;SDS011;7180;52.742;11.420;2023-04-24T06:35:28;8.03;;;7.63;;
8584;SDS011;7180;52.742;11.420;2023-04-24T06:37:53;8.40;;;8.00;;
8584;SDS011;7180;52.742;11.420;2023-04-24T06:40:18;8.40;;;7.90;;
8584;SDS011;7180;52.742;11.420;2023-04-24T06:42:44;8.10;;;7.60;;
8584;SDS011;7180;52.742;11.420;2023-04-24T06:45:09;8.13;;;7.73;;
8584;SDS011;7180;52.742;11.420;2023-04-24T06:47:35;8.20;;;7.80;;
8584;SDS011;7180;52.742;11.420;2023-04-24T06:50:00;7.87;;;7.57;;
8584;SDS011;7180;52.742;11.420;2023-04-24T06:52:26;8.30;;;7.90;;
8584;SDS011;7180;52.742;11.420;2023-04-24T06:54:51;8.73;;;8.03;;
8584;SDS011;7180;52.742;11.420;2023-04-24T06:57:17;7.90;;;7.60;;
8584;SDS011;7180;52.742;11.420;2023-04-24T06:59:42;8.37;;;8.00;;
8584;SDS011;7180;52.742;11.420;2023-04-24T07:02:08;8.50;;;7.90;;
8584;SDS011;7180;52.742;11.420;2023-04-24T07:04:33;8.07;;;7.67;;
8584;SDS011;7180;52.742;11.420;2023-04-24T07:06:58;7.97;;;7.67;;
8584;SDS011;7180;52.742;11.420;2023-04-24T07:09:24;8.40;;;8.10;;
8584;SDS011;7180;52.742;11.420;2023-04-24T07:11:51;9.23;;;8.77;;
8584;SDS011;7180;52.742;11.420;2023-04-24T07:14:16;9.13;;;8.73;;
8584;SDS011;7180;52.742;11.420;2023-04-24T07:16:42;8.97;;;8.57;;
8584;SDS011;7180;52.742;11.420;2023-04-24T07:19:08;9.13;;;8.63;;
8584;SDS011;7180;52.742;11.420;2023-04-24T07:21:33;8.57;;;8.07;;
8584;SDS011;7180;52.742;11.420;2023-04-24T07:23:59;8.73;;;8.33;;
8584;SDS011;7180;52.742;11.420;2023-04-24T07:26:25;8.80;;;8.40;;
8584;SDS011;7180;52.742;11.420;2023-04-24T07:28:51;9.00;;;8.50;;
8584;SDS011;7180;52.742;11.420;2023-04-24T07:31:16;7.57;;;7.27;;
8584;SDS011;7180;52.742;11.420;2023-04-24T07:33:42;7.87;;;7.47;;
8584;SDS011;7180;52.742;11.420;2023-04-24T07:36:07;9.33;;;8.83;;
8584;SDS011;7180;52.742;11.420;2023-04-24T07:38:32;8.10;;;7.60;;
8584;SDS011;7180;52.742;11.420;2023-04-24T07:40:58;8.07;;;7.77;;
8584;SDS011;7180;52.742;11.420;2023-04-24T07:43:23;7.90;;;7.57;;
8584;SDS011;7180;52.742;11.420;2023-04-24T07:45:49;8.10;;;7.70;;
8584;SDS011;7180;52.742;11.420;2023-04-24T07:48:15;8.63;;;8.23;;
8584;SDS011;7180;52.742;11.420;2023-04-24T07:50:41;8.03;;;7.50;;
8584;SDS011;7180;52.742;11.420;2023-04-24T07:53:06;8.20;;;7.80;;
8584;SDS011;7180;52.742;11.420;2023-04-24T07:55:32;8.40;;;8.00;;
8584;SDS011;7180;52.742;11.420;2023-04-24T07:57:57;8.00;;;7.60;;
8584;SDS011;7180;52.742;11.420;2023-04-24T08:00:23;8.60;;;8.10;;
8584;SDS011;7180;52.742;11.420;2023-04-24T08:02:48;8.23;;;7.83;;
8584;SDS011;7180;52.742;11.420;2023-04-24T08:05:13;8.23;;;7.83;;
8584;SDS011;7180;52.742;11.420;2023-04-24T08:07:38;8.10;;;7.70;;
8584;SDS011;7180;52.742;11.420;2023-04-24T08:10:04;8.20;;;7.80;;
8584;SDS011;7180;52.742;11.420;2023-04-24T08:12:30;8.23;;;7.83;;
8584;SDS011;7180;52.742;11.420;2023-04-24T08:14:55;8.00;;;7.60;;
8584;SDS011;7180;52.742;11.420;2023-04-24T08:17:20;8.10;;;7.70;;
8584;SDS011;7180;52.742;11.420;2023-04-24T08:19:46;8.67;;;8.27;;
8584;SDS011;7180;52.742;11.420;2023-04-24T08:22:16;9.10;;;8.70;;
8584;SDS011;7180;52.742;11.420;2023-04-24T08:24:41;9.00;;;8.60;;
8584;SDS011;7180;52.742;11.420;2023-04-24T08:27:06;9.90;;;9.30;;
8584;SDS011;7180;52.742;11.420;2023-04-24T08:29:32;9.30;;;8.80;;
8584;SDS011;7180;52.742;11.420;2023-04-24T08:31:57;8.40;;;8.00;;
8584;SDS011;7180;52.742;11.420;2023-04-24T08:34:22;8.97;;;8.37;;
8584;SDS011;7180;52.742;11.420;2023-04-24T08:36:48;9.40;;;8.80;;
8584;SDS011;7180;52.742;11.420;2023-04-24T08:39:14;9.13;;;8.53;;
8584;SDS011;7180;52.742;11.420;2023-04-24T08:41:41;9.10;;;8.70;;
8584;SDS011;7180;52.742;11.420;2023-04-24T08:44:08;8.87;;;8.43;;
8584;SDS011;7180;52.742;11.420;2023-04-24T08:46:34;9.03;;;8.53;;
8584;SDS011;7180;52.742;11.420;2023-04-24T08:49:00;8.53;;;7.97;;
8584;SDS011;7180;52.742;11.420;2023-04-24T08:51:27;8.40;;;8.00;;
8584;SDS011;7180;52.742;11.420;2023-04-24T08:53:53;8.40;;;7.90;;
8584;SDS011;7180;52.742;11.420;2023-04-24T08:56:20;8.87;;;8.40;;
8584;SDS011;7180;52.742;11.420;2023-04-24T08:58:48;7.73;;;7.40;;
8584;SDS011;7180;52.742;11.420;2023-04-24T09:01:15;8.10;;;7.70;;
8584;SDS011;7180;52.742;11.420;2023-04-24T09:03:41;9.50;;;9.00;;
8584;SDS011;7180;52.742;11.420;2023-04-24T09:06:06;10.27;;;9.77;;
8584;SDS011;7180;52.742;11.420;2023-04-24T09:08:34;10.00;;;9.40;;
8584;SDS011;7180;52.742;11.420;2023-04-24T09:11:01;7.80;;;7.40;;
8584;SDS011;7180;52.742;11.420;2023-04-24T09:13:27;8.20;;;7.80;;
8584;SDS011;7180;52.742;11.420;2023-04-24T09:15:53;9.03;;;8.63;;
8584;SDS011;7180;52.742;11.420;2023-04-24T09:18:19;9.00;;;8.60;;
8584;SDS011;7180;52.742;11.420;2023-04-24T09:20:56;9.07;;;8.50;;
8584;SDS011;7180;52.742;11.420;2023-04-24T09:23:23;8.37;;;7.87;;
8584;SDS011;7180;52.742;11.420;2023-04-24T09:25:55;8.30;;;7.80;;
8584;SDS011;7180;52.742;11.420;2023-04-24T09:28:24;8.00;;;7.70;;
8584;SDS011;7180;52.742;11.420;2023-04-24T09:31:06;7.77;;;7.47;;
8584;SDS011;7180;52.742;11.420;2023-04-24T09:33:31;8.47;;;7.93;;
8584;SDS011;7180;52.742;11.420;2023-04-24T09:35:57;8.10;;;7.70;;
8584;SDS011;7180;52.742;11.420;2023-04-24T09:38:30;8.57;;;8.10;;
8584;SDS011;7180;52.742;11.420;2023-04-24T09:41:00;8.27;;;7.87;;
8584;SDS011;7180;52.742;11.420;2023-04-24T09:43:33;9.40;;;8.90;;
8584;SDS011;7180;52.742;11.420;2023-04-24T09:46:04;8.20;;;7.80;;
8584;SDS011;7180;52.742;11.420;2023-04-24T09:48:32;8.30;;;7.90;;
8584;SDS011;7180;52.742;11.420;2023-04-24T09:50:59;8.70;;;8.30;;
8584;SDS011;7180;52.742;11.420;2023-04-24T09:53:26;8.60;;;8.20;;
8584;SDS011;7180;52.742;11.420;2023-04-24T09:55:52;8.57;;;8.07;;
8584;SDS011;7180;52.742;11.420;2023-04-24T09:58:18;8.90;;;8.40;;
8584;SDS011;7180;52.742;11.420;2023-04-24T10:00:49;8.57;;;8.10;;
8584;SDS011;7180;52.742;11.420;2023-04-24T10:03:15;8.40;;;8.00;;
8584;SDS011;7180;52.742;11.420;2023-04-24T10:05:42;8.77;;;8.33;;
8584;SDS011;7180;52.742;11.420;2023-04-24T10:08:11;9.63;;;9.03;;
8584;SDS011;7180;52.742;11.420;2023-04-24T10:10:38;8.40;;;8.00;;
8584;SDS011;7180;52.742;11.420;2023-04-24T10:13:06;8.43;;;7.93;;
8584;SDS011;7180;52.742;11.420;2023-04-24T10:15:32;8.87;;;8.37;;
8584;SDS011;7180;52.742;11.420;2023-04-24T10:17:58;9.03;;;8.50;;
8584;SDS011;7180;52.742;11.420;2023-04-24T10:20:25;9.77;;;9.27;;
8584;SDS011;7180;52.742;11.420;2023-04-24T10:22:53;10.13;;;9.63;;
8584;SDS011;7180;52.742;11.420;2023-04-24T10:25:37;9.17;;;8.70;;
8584;SDS011;7180;52.742;11.420;2023-04-24T10:28:02;10.70;;;10.10;;
8584;SDS011;7180;52.742;11.420;2023-04-24T10:30:29;10.80;;;10.20;;
8584;SDS011;7180;52.742;11.420;2023-04-24T10:32:59;10.77;;;10.17;;
8584;SDS011;7180;52.742;11.420;2023-04-24T10:35:25;10.40;;;9.80;;
8584;SDS011;7180;52.742;11.420;2023-04-24T10:40:17;10.60;;;10.00;;
8584;SDS011;7180;52.742;11.420;2023-04-24T10:42:46;10.50;;;9.90;;
8584;SDS011;7180;52.742;11.420;2023-04-24T10:45:17;10.07;;;9.57;;
8584;SDS011;7180;52.742;11.420;2023-04-24T10:47:59;11.07;;;10.47;;
8584;SDS011;7180;52.742;11.420;2023-04-24T10:50:27;11.00;;;10.40;;
8584;SDS011;7180;52.742;11.420;2023-04-24T10:53:04;10.73;;;10.13;;
8584;SDS011;7180;52.742;11.420;2023-04-24T10:55:42;10.97;;;10.20;;
8584;SDS011;7180;52.742;11.420;2023-04-24T10:58:10;11.50;;;10.70;;
8584;SDS011;7180;52.742;11.420;2023-04-24T11:00:37;11.70;;;11.00;;
8584;SDS011;7180;52.742;11.420;2023-04-24T11:03:04;11.30;;;10.67;;
8584;SDS011;7180;52.742;11.420;2023-04-24T11:08:16;10.30;;;9.67;;
8584;SDS011;7180;52.742;11.420;2023-04-24T11:10:54;10.57;;;9.97;;
8584;SDS011;7180;52.742;11.420;2023-04-24T11:16:25;10.87;;;10.27;;
8584;SDS011;7180;52.742;11.420;2023-04-24T11:21:40;11.07;;;10.47;;
8584;SDS011;7180;52.742;11.420;2023-04-24T11:24:23;11.30;;;10.70;;
8584;SDS011;7180;52.742;11.420;2023-04-24T11:26:48;11.00;;;10.40;;
8584;SDS011;7180;52.742;11.420;2023-04-24T11:29:13;10.73;;;10.13;;
8584;SDS011;7180;52.742;11.420;2023-04-24T11:31:39;10.73;;;9.93;;
8584;SDS011;7180;52.742;11.420;2023-04-24T11:34:10;10.40;;;9.80;;
8584;SDS011;7180;52.742;11.420;2023-04-24T11:36:37;10.73;;;10.13;;
8584;SDS011;7180;52.742;11.420;2023-04-24T11:39:03;11.37;;;10.67;;
8584;SDS011;7180;52.742;11.420;2023-04-24T11:41:29;11.27;;;10.67;;
8584;SDS011;7180;52.742;11.420;2023-04-24T11:43:55;10.83;;;10.13;;
8584;SDS011;7180;52.742;11.420;2023-04-24T11:46:21;10.07;;;9.47;;
8584;SDS011;7180;52.742;11.420;2023-04-24T11:48:47;9.77;;;9.10;;
8584;SDS011;7180;52.742;11.420;2023-04-24T11:51:15;9.93;;;9.40;;
8584;SDS011;7180;52.742;11.420;2023-04-24T11:53:41;9.83;;;9.33;;
8584;SDS011;7180;52.742;11.420;2023-04-24T11:56:06;10.67;;;10.07;;
8584;SDS011;7180;52.742;11.420;2023-04-24T11:58:40;10.40;;;9.80;;
8584;SDS011;7180;52.742;11.420;2023-04-24T12:01:05;11.07;;;10.30;;
8584;SDS011;7180;52.742;11.420;2023-04-24T12:03:31;10.70;;;10.10;;
8584;SDS011;7180;52.742;11.420;2023-04-24T12:06:08;10.83;;;10.23;;
8584;SDS011;7180;52.742;11.420;2023-04-24T12:08:36;10.73;;;10.13;;
8584;SDS011;7180;52.742;11.420;2023-04-24T12:11:03;10.90;;;10.30;;
8584;SDS011;7180;52.742;11.420;2023-04-24T12:13:30;10.40;;;9.90;;
8584;SDS011;7180;52.742;11.420;2023-04-24T12:15:58;10.10;;;9.50;;
8584;SDS011;7180;52.742;11.420;2023-04-24T12:18:24;9.50;;;9.03;;
8584;SDS011;7180;52.742;11.420;2023-04-24T12:20:50;9.43;;;8.83;;
8584;SDS011;7180;52.742;11.420;2023-04-24T12:23:15;10.27;;;9.77;;
8584;SDS011;7180;52.742;11.420;2023-04-24T12:25:41;9.70;;;9.10;;
8584;SDS011;7180;52.742;11.420;2023-04-24T12:30:34;10.40;;;9.80;;
8584;SDS011;7180;52.742;11.420;2023-04-24T12:33:03;10.30;;;9.80;;
8584;SDS011;7180;52.742;11.420;2023-04-24T12:35:29;9.07;;;8.57;;
8584;SDS011;7180;52.742;11.420;2023-04-24T12:38:07;9.40;;;8.90;;
8584;SDS011;7180;52.742;11.420;2023-04-24T12:40:34;9.90;;;9.40;;
8584;SDS011;7180;52.742;11.420;2023-04-24T12:42:59;9.40;;;8.90;;
8584;SDS011;7180;52.742;11.420;2023-04-24T12:45:24;10.00;;;9.40;;
8584;SDS011;7180;52.742;11.420;2023-04-24T12:47:50;9.70;;;9.10;;
8584;SDS011;7180;52.742;11.420;2023-04-24T12:50:15;9.73;;;9.17;;
8584;SDS011;7180;52.742;11.420;2023-04-24T12:52:41;10.03;;;9.43;;
8584;SDS011;7180;52.742;11.420;2023-04-24T12:55:07;9.33;;;8.83;;
8584;SDS011;7180;52.742;11.420;2023-04-24T12:57:34;10.00;;;9.50;;
8584;SDS011;7180;52.742;11.420;2023-04-24T13:00:01;9.50;;;8.90;;
8584;SDS011;7180;52.742;11.420;2023-04-24T13:02:27;9.33;;;8.83;;
8584;SDS011;7180;52.742;11.420;2023-04-24T13:04:57;9.57;;;9.00;;
8584;SDS011;7180;52.742;11.420;2023-04-24T13:07:23;9.50;;;9.00;;
8584;SDS011;7180;52.742;11.420;2023-04-24T13:09:50;8.87;;;8.37;;
8584;SDS011;7180;52.742;11.420;2023-04-24T13:12:15;8.50;;;8.00;;
8584;SDS011;7180;52.742;11.420;2023-04-24T13:14:41;8.63;;;8.13;;
8584;SDS011;7180;52.742;11.420;2023-04-24T13:17:07;9.30;;;8.90;;
8584;SDS011;7180;52.742;11.420;2023-04-24T13:19:35;8.73;;;8.27;;
8584;SDS011;7180;52.742;11.420;2023-04-24T13:22:01;8.90;;;8.50;;
8584;SDS011;7180;52.742;11.420;2023-04-24T13:24:27;8.50;;;8.00;;
8584;SDS011;7180;52.742;11.420;2023-04-24T13:26:52;8.13;;;7.73;;
8584;SDS011;7180;52.742;11.420;2023-04-24T13:29:18;8.53;;;8.00;;
8584;SDS011;7180;52.742;11.420;2023-04-24T13:31:43;9.10;;;8.50;;
8584;SDS011;7180;52.742;11.420;2023-04-24T13:34:09;8.70;;;8.20;;
8584;SDS011;7180;52.742;11.420;2023-04-24T13:36:34;8.20;;;7.80;;
8584;SDS011;7180;52.742;11.420;2023-04-24T13:39:00;8.30;;;7.90;;
8584;SDS011;7180;52.742;11.420;2023-04-24T13:41:26;8.47;;;8.00;;
8584;SDS011;7180;52.742;11.420;2023-04-24T13:43:51;8.70;;;8.30;;
8584;SDS011;7180;52.742;11.420;2023-04-24T13:46:16;8.20;;;7.80;;
8584;SDS011;7180;52.742;11.420;2023-04-24T13:48:41;8.37;;;7.93;;
8584;SDS011;7180;52.742;11.420;2023-04-24T13:51:07;9.60;;;9.10;;
8584;SDS011;7180;52.742;11.420;2023-04-24T13:53:32;9.07;;;8.57;;
8584;SDS011;7180;52.742;11.420;2023-04-24T13:56:00;9.53;;;9.13;;
8584;SDS011;7180;52.742;11.420;2023-04-24T13:58:26;8.77;;;8.27;;
8584;SDS011;7180;52.742;11.420;2023-04-24T14:00:52;9.13;;;8.63;;
8584;SDS011;7180;52.742;11.420;2023-04-24T14:03:17;8.90;;;8.40;;
8584;SDS011;7180;52.742;11.420;2023-04-24T14:05:42;8.30;;;7.90;;
8584;SDS011;7180;52.742;11.420;2023-04-24T14:08:07;8.30;;;7.90;;
8584;SDS011;7180;52.742;11.420;2023-04-24T14:10:33;8.50;;;8.10;;
8584;SDS011;7180;52.742;11.420;2023-04-24T14:12:58;8.80;;;8.40;;
8584;SDS011;7180;52.742;11.420;2023-04-24T14:15:23;8.80;;;8.40;;
8584;SDS011;7180;52.742;11.420;2023-04-24T14:17:48;8.83;;;8.43;;
8584;SDS011;7180;52.742;11.420;2023-04-24T14:20:14;8.33;;;7.97;;
8584;SDS011;7180;52.742;11.420;2023-04-24T14:22:40;8.33;;;7.93;;
8584;SDS011;7180;52.742;11.420;2023-04-24T14:25:05;8.30;;;7.90;;
8584;SDS011;7180;52.742;11.420;2023-04-24T14:27:32;9.30;;;8.90;;
8584;SDS011;7180;52.742;11.420;2023-04-24T14:29:57;8.47;;;8.07;;
8584;SDS011;7180;52.742;11.420;2023-04-24T14:32:22;8.40;;;7.87;;
8584;SDS011;7180;52.742;11.420;2023-04-24T14:34:48;8.30;;;7.90;;
8584;SDS011;7180;52.742;11.420;2023-04-24T14:37:13;8.53;;;8.13;;
8584;SDS011;7180;52.742;11.420;2023-04-24T14:39:38;8.60;;;8.20;;
8584;SDS011;7180;52.742;11.420;2023-04-24T14:42:04;8.70;;;8.30;;
8584;SDS011;7180;52.742;11.420;2023-04-24T14:44:29;8.07;;;7.70;;
8584;SDS011;7180;52.742;11.420;2023-04-24T14:46:54;7.67;;;7.37;;
8584;SDS011;7180;52.742;11.420;2023-04-24T14:49:20;7.97;;;7.57;;
8584;SDS011;7180;52.742;11.420;2023-04-24T14:51:45;8.60;;;8.10;;
8584;SDS011;7180;52.742;11.420;2023-04-24T14:54:10;8.70;;;8.30;;
8584;SDS011;7180;52.742;11.420;2023-04-24T14:56:36;9.20;;;8.70;;
8584;SDS011;7180;52.742;11.420;2023-04-24T14:59:01;11.00;;;10.30;;
8584;SDS011;7180;52.742;11.420;2023-04-24T15:01:27;10.83;;;10.23;;
8584;SDS011;7180;52.742;11.420;2023-04-24T15:03:52;10.40;;;9.80;;